sensor_id;sensor_type;location;lat;lon;timestamp;pressure;altitude;pressure_sealevel;temperature;humidity
20015;BME280;61787;42.022;23.078;2024-03-08T00:00:47;96864.88;;;7.65;62.60
20015;BME280;61787;42.022;23.078;2024-03-08T00:01:48;96862.56;;;7.71;62.52
20015;BME280;61787;42.022;23.078;2024-03-08T00:02:50;96861.81;;;7.74;62.42
20015;BME280;61787;42.022;23.078;2024-03-08T00:03:52;96861.44;;;7.79;62.37
20015;BME280;61787;42.022;23.078;2024-03-08T00:04:54;96865.69;;;7.80;62.36
20015;BME280;61787;42.022;23.078;2024-03-08T00:05:56;96856.00;;;7.75;62.13
20015;BME280;61787;42.022;23.078;2024-03-08T00:06:57;96854.44;;;7.71;62.34
20015;BME280;61787;42.022;23.078;2024-03-08T00:07:59;96850.56;;;7.75;62.32
20015;BME280;61787;42.022;23.078;2024-03-08T00:09:01;96858.31;;;7.77;62.04
20015;BME280;61787;42.022;23.078;2024-03-08T00:10:07;96854.81;;;7.76;62.13
20015;BME280;61787;42.022;23.078;2024-03-08T00:11:16;96864.13;;;7.72;62.23
20015;BME280;61787;42.022;23.078;2024-03-08T00:12:18;96856.34;;;7.67;62.23
20015;BME280;61787;42.022;23.078;2024-03-08T00:13:20;96856.38;;;7.70;62.27
20015;BME280;61787;42.022;23.078;2024-03-08T00:14:21;96861.44;;;7.75;62.38
20015;BME280;61787;42.022;23.078;2024-03-08T00:15:23;96857.94;;;7.82;62.01
20015;BME280;61787;42.022;23.078;2024-03-08T00:16:25;96858.75;;;7.82;62.11
20015;BME280;61787;42.022;23.078;2024-03-08T00:17:26;96853.69;;;7.84;62.02
20015;BME280;61787;42.022;23.078;2024-03-08T00:18:28;96861.06;;;7.88;61.98
20015;BME280;61787;42.022;23.078;2024-03-08T00:19:31;96854.09;;;7.94;62.03
20015;BME280;61787;42.022;23.078;2024-03-08T00:20:33;96856.84;;;7.97;61.86
20015;BME280;61787;42.022;23.078;2024-03-08T00:21:34;96859.53;;;7.94;61.94
20015;BME280;61787;42.022;23.078;2024-03-08T00:22:37;96858.78;;;7.97;61.98
20015;BME280;61787;42.022;23.078;2024-03-08T00:23:39;96858.78;;;7.97;61.73
20015;BME280;61787;42.022;23.078;2024-03-08T00:24:41;96867.31;;;7.99;61.78
20015;BME280;61787;42.022;23.078;2024-03-08T00:25:43;96861.50;;;7.97;61.83
20015;BME280;61787;42.022;23.078;2024-03-08T00:26:44;96854.50;;;7.99;61.85
20015;BME280;61787;42.022;23.078;2024-03-08T00:27:46;96858.00;;;8.03;61.66
20015;BME280;61787;42.022;23.078;2024-03-08T00:28:51;96856.06;;;8.00;61.41
20015;BME280;61787;42.022;23.078;2024-03-08T00:29:52;96856.44;;;7.99;61.59
20015;BME280;61787;42.022;23.078;2024-03-08T00:30:54;96860.72;;;8.03;61.58
20015;BME280;61787;42.022;23.078;2024-03-08T00:31:56;96844.78;;;7.88;61.71
20015;BME280;61787;42.022;23.078;2024-03-08T00:32:57;96850.63;;;7.90;61.79
20015;BME280;61787;42.022;23.078;2024-03-08T00:33:59;96851.38;;;7.90;61.81
20015;BME280;61787;42.022;23.078;2024-03-08T00:35:02;96851.00;;;7.92;61.75
20015;BME280;61787;42.022;23.078;2024-03-08T00:36:04;96843.22;;;7.87;61.65
20015;BME280;61787;42.022;23.078;2024-03-08T00:37:05;96842.03;;;7.80;61.59
20015;BME280;61787;42.022;23.078;2024-03-08T00:38:07;96846.22;;;7.53;62.62
20015;BME280;61787;42.022;23.078;2024-03-08T00:39:09;96846.56;;;7.40;62.93
20015;BME280;61787;42.022;23.078;2024-03-08T00:40:11;96846.50;;;7.30;63.33
20015;BME280;61787;42.022;23.078;2024-03-08T00:41:13;96851.56;;;7.31;63.85
20015;BME280;61787;42.022;23.078;2024-03-08T00:42:15;96849.63;;;7.35;63.87
20015;BME280;61787;42.022;23.078;2024-03-08T00:43:16;96852.38;;;7.42;63.72
20015;BME280;61787;42.022;23.078;2024-03-08T00:44:18;96848.88;;;7.42;63.81
20015;BME280;61787;42.022;23.078;2024-03-08T00:45:20;96850.81;;;7.34;64.01
20015;BME280;61787;42.022;23.078;2024-03-08T00:46:21;96848.03;;;7.23;64.12
20015;BME280;61787;42.022;23.078;2024-03-08T00:47:23;96852.25;;;7.17;63.91
20015;BME280;61787;42.022;23.078;2024-03-08T00:48:25;96844.44;;;7.05;64.66
20015;BME280;61787;42.022;23.078;2024-03-08T00:49:27;96845.94;;;6.95;64.77
20015;BME280;61787;42.022;23.078;2024-03-08T00:50:28;96841.63;;;6.87;65.27
20015;BME280;61787;42.022;23.078;2024-03-08T00:51:30;96837.00;;;6.87;65.47
20015;BME280;61787;42.022;23.078;2024-03-08T00:52:32;96838.09;;;6.83;65.56
20015;BME280;61787;42.022;23.078;2024-03-08T00:53:36;96835.78;;;6.81;65.71
20015;BME280;61787;42.022;23.078;2024-03-08T00:54:38;96839.69;;;6.87;65.61
20015;BME280;61787;42.022;23.078;2024-03-08T00:55:39;96833.09;;;6.85;65.62
20015;BME280;61787;42.022;23.078;2024-03-08T00:56:41;96837.72;;;6.81;65.75
20015;BME280;61787;42.022;23.078;2024-03-08T00:57:43;96831.84;;;6.72;66.10
20015;BME280;61787;42.022;23.078;2024-03-08T00:58:44;96829.50;;;6.66;66.22
20015;BME280;61787;42.022;23.078;2024-03-08T00:59:46;96827.88;;;6.58;66.53
20015;BME280;61787;42.022;23.078;2024-03-08T01:00:48;96826.69;;;6.56;66.56
20015;BME280;61787;42.022;23.078;2024-03-08T01:01:50;96837.13;;;6.54;66.61
20015;BME280;61787;42.022;23.078;2024-03-08T01:02:51;96830.19;;;6.56;66.27
20015;BME280;61787;42.022;23.078;2024-03-08T01:03:53;96825.53;;;6.57;66.37
20015;BME280;61787;42.022;23.078;2024-03-08T01:04:55;96823.22;;;6.55;66.63
20015;BME280;61787;42.022;23.078;2024-03-08T01:05:57;96822.44;;;6.58;66.64
20015;BME280;61787;42.022;23.078;2024-03-08T01:07:01;96821.34;;;6.63;66.56
20015;BME280;61787;42.022;23.078;2024-03-08T01:08:02;96818.59;;;6.59;66.86
20015;BME280;61787;42.022;23.078;2024-03-08T01:09:04;96827.47;;;6.56;66.80
20015;BME280;61787;42.022;23.078;2024-03-08T01:10:09;96821.72;;;6.61;67.03
20015;BME280;61787;42.022;23.078;2024-03-08T01:11:13;96825.22;;;6.65;66.79
20015;BME280;61787;42.022;23.078;2024-03-08T01:12:15;96824.03;;;6.59;66.86
20015;BME280;61787;42.022;23.078;2024-03-08T01:13:17;96817.03;;;6.58;66.96
20015;BME280;61787;42.022;23.078;2024-03-08T01:14:21;96813.56;;;6.58;67.18
20015;BME280;61787;42.022;23.078;2024-03-08T01:15:30;96812.00;;;6.60;67.15
20015;BME280;61787;42.022;23.078;2024-03-08T01:16:31;96815.50;;;6.57;67.25
20015;BME280;61787;42.022;23.078;2024-03-08T01:17:34;96817.84;;;6.62;67.18
20015;BME280;61787;42.022;23.078;2024-03-08T01:18:36;96816.72;;;6.67;67.15
20015;BME280;61787;42.022;23.078;2024-03-08T01:19:38;96821.03;;;6.75;66.86
20015;BME280;61787;42.022;23.078;2024-03-08T01:20:40;96814.88;;;6.82;66.93
20015;BME280;61787;42.022;23.078;2024-03-08T01:21:43;96809.13;;;6.91;66.73
20015;BME280;61787;42.022;23.078;2024-03-08T01:22:45;96816.13;;;6.95;66.34
20015;BME280;61787;42.022;23.078;2024-03-08T01:23:46;96816.13;;;6.95;66.34
20015;BME280;61787;42.022;23.078;2024-03-08T01:24:48;96809.97;;;7.02;66.28
20015;BME280;61787;42.022;23.078;2024-03-08T01:25:50;96818.91;;;7.10;66.12
20015;BME280;61787;42.022;23.078;2024-03-08T01:26:58;96808.09;;;7.13;65.81
20015;BME280;61787;42.022;23.078;2024-03-08T01:28:00;96811.97;;;7.19;65.88
20015;BME280;61787;42.022;23.078;2024-03-08T01:29:02;96805.81;;;7.26;65.45
20015;BME280;61787;42.022;23.078;2024-03-08T01:30:05;96805.06;;;7.29;65.49
20015;BME280;61787;42.022;23.078;2024-03-08T01:31:07;96811.28;;;7.33;65.26
20015;BME280;61787;42.022;23.078;2024-03-08T01:32:08;96813.22;;;7.33;65.00
20015;BME280;61787;42.022;23.078;2024-03-08T01:33:10;96805.84;;;7.30;65.14
20015;BME280;61787;42.022;23.078;2024-03-08T01:34:12;96806.22;;;7.32;65.21
20015;BME280;61787;42.022;23.078;2024-03-08T01:35:13;96805.47;;;7.38;64.68
20015;BME280;61787;42.022;23.078;2024-03-08T01:36:15;96802.00;;;7.41;64.74
20015;BME280;61787;42.022;23.078;2024-03-08T01:37:17;96806.66;;;7.44;64.30
20015;BME280;61787;42.022;23.078;2024-03-08T01:38:19;96805.53;;;7.49;64.12
20015;BME280;61787;42.022;23.078;2024-03-08T01:39:22;96804.75;;;7.49;64.07
20015;BME280;61787;42.022;23.078;2024-03-08T01:40:24;96805.16;;;7.51;63.90
20015;BME280;61787;42.022;23.078;2024-03-08T01:41:26;96808.25;;;7.53;63.97
20015;BME280;61787;42.022;23.078;2024-03-08T01:42:31;96803.22;;;7.58;63.86
20015;BME280;61787;42.022;23.078;2024-03-08T01:43:33;96805.19;;;7.65;63.63
20015;BME280;61787;42.022;23.078;2024-03-08T01:44:34;96802.50;;;7.72;63.61
20015;BME280;61787;42.022;23.078;2024-03-08T01:45:36;96805.59;;;7.78;63.39
20015;BME280;61787;42.022;23.078;2024-03-08T01:46:37;96808.34;;;7.85;63.50
20015;BME280;61787;42.022;23.078;2024-03-08T01:47:39;96806.00;;;7.91;63.34
20015;BME280;61787;42.022;23.078;2024-03-08T01:48:42;96799.44;;;7.92;63.26
20015;BME280;61787;42.022;23.078;2024-03-08T01:49:44;96799.81;;;7.97;63.37
20015;BME280;61787;42.022;23.078;2024-03-08T01:50:46;96799.84;;;8.01;63.24
20015;BME280;61787;42.022;23.078;2024-03-08T01:51:49;96798.66;;;8.06;63.13
20015;BME280;61787;42.022;23.078;2024-03-08T01:52:51;96795.56;;;8.11;63.02
20015;BME280;61787;42.022;23.078;2024-03-08T01:53:55;96792.84;;;8.14;63.14
20015;BME280;61787;42.022;23.078;2024-03-08T01:55:03;96795.19;;;8.19;63.05
20015;BME280;61787;42.022;23.078;2024-03-08T01:56:08;96799.09;;;8.26;62.63
20015;BME280;61787;42.022;23.078;2024-03-08T01:57:11;96789.75;;;8.27;62.37
20015;BME280;61787;42.022;23.078;2024-03-08T01:58:13;96795.97;;;8.31;62.23
20015;BME280;61787;42.022;23.078;2024-03-08T01:59:19;96793.66;;;8.33;62.27
20015;BME280;61787;42.022;23.078;2024-03-08T02:00:21;96791.31;;;8.35;61.99
20015;BME280;61787;42.022;23.078;2024-03-08T02:01:22;96798.28;;;8.36;61.92
20015;BME280;61787;42.022;23.078;2024-03-08T02:02:25;96793.66;;;8.36;62.05
20015;BME280;61787;42.022;23.078;2024-03-08T02:03:26;96792.09;;;8.39;61.68
20015;BME280;61787;42.022;23.078;2024-03-08T02:04:30;96786.28;;;8.37;61.73
20015;BME280;61787;42.022;23.078;2024-03-08T02:05:32;96793.25;;;8.31;61.72
20015;BME280;61787;42.022;23.078;2024-03-08T02:06:34;96789.00;;;8.22;61.56
20015;BME280;61787;42.022;23.078;2024-03-08T02:07:35;96784.72;;;8.14;62.04
20015;BME280;61787;42.022;23.078;2024-03-08T02:08:37;96795.56;;;8.14;62.02
20015;BME280;61787;42.022;23.078;2024-03-08T02:09:39;96792.84;;;8.07;62.54
20015;BME280;61787;42.022;23.078;2024-03-08T02:10:41;96792.84;;;8.03;62.79
20015;BME280;61787;42.022;23.078;2024-03-08T02:11:43;96783.16;;;8.06;62.57
20015;BME280;61787;42.022;23.078;2024-03-08T02:12:46;96787.03;;;7.94;62.83
20015;BME280;61787;42.022;23.078;2024-03-08T02:13:48;96791.66;;;7.83;63.26
20015;BME280;61787;42.022;23.078;2024-03-08T02:14:50;96783.53;;;7.83;63.34
20015;BME280;61787;42.022;23.078;2024-03-08T02:15:59;96793.63;;;7.86;63.16
20015;BME280;61787;42.022;23.078;2024-03-08T02:17:01;96785.84;;;7.84;63.49
20015;BME280;61787;42.022;23.078;2024-03-08T02:18:03;96792.03;;;7.85;63.61
20015;BME280;61787;42.022;23.078;2024-03-08T02:19:04;96797.47;;;7.85;63.50
20015;BME280;61787;42.022;23.078;2024-03-08T02:20:08;96799.44;;;7.88;63.59
20015;BME280;61787;42.022;23.078;2024-03-08T02:21:12;96799.06;;;7.93;63.46
20015;BME280;61787;42.022;23.078;2024-03-08T02:22:14;96795.16;;;7.98;63.28
20015;BME280;61787;42.022;23.078;2024-03-08T02:23:15;96796.72;;;7.99;63.18
20015;BME280;61787;42.022;23.078;2024-03-08T02:24:17;96801.38;;;7.98;63.34
20015;BME280;61787;42.022;23.078;2024-03-08T02:25:19;96805.25;;;7.94;63.56
20015;BME280;61787;42.022;23.078;2024-03-08T02:26:20;96797.88;;;7.94;63.79
20015;BME280;61787;42.022;23.078;2024-03-08T02:27:25;96801.78;;;7.97;63.73
20015;BME280;61787;42.022;23.078;2024-03-08T02:28:27;96794.41;;;7.94;63.92
20015;BME280;61787;42.022;23.078;2024-03-08T02:29:30;96799.06;;;7.93;63.84
20015;BME280;61787;42.022;23.078;2024-03-08T02:30:32;96804.47;;;7.90;64.14
20015;BME280;61787;42.022;23.078;2024-03-08T02:31:34;96802.53;;;7.94;64.29
20015;BME280;61787;42.022;23.078;2024-03-08T02:32:36;96804.88;;;7.99;63.75
20015;BME280;61787;42.022;23.078;2024-03-08T02:33:37;96793.63;;;8.04;63.87
20015;BME280;61787;42.022;23.078;2024-03-08T02:34:39;96799.06;;;8.11;63.85
20015;BME280;61787;42.022;23.078;2024-03-08T02:35:41;96801.00;;;8.14;63.50
20015;BME280;61787;42.022;23.078;2024-03-08T02:36:45;96803.34;;;8.16;63.50
20015;BME280;61787;42.022;23.078;2024-03-08T02:37:48;96804.09;;;8.20;63.45
20015;BME280;61787;42.022;23.078;2024-03-08T02:38:49;96802.94;;;8.17;63.33
20015;BME280;61787;42.022;23.078;2024-03-08T02:39:51;96799.84;;;8.15;63.52
20015;BME280;61787;42.022;23.078;2024-03-08T02:40:53;96806.81;;;8.16;63.38
20015;BME280;61787;42.022;23.078;2024-03-08T02:41:56;96804.09;;;8.13;63.38
20015;BME280;61787;42.022;23.078;2024-03-08T02:42:57;96810.31;;;8.06;63.59
20015;BME280;61787;42.022;23.078;2024-03-08T02:43:59;96809.50;;;7.98;63.41
20015;BME280;61787;42.022;23.078;2024-03-08T02:45:01;96807.19;;;7.97;63.44
20015;BME280;61787;42.022;23.078;2024-03-08T02:46:03;96803.31;;;7.98;63.60
20015;BME280;61787;42.022;23.078;2024-03-08T02:47:06;96806.41;;;7.93;63.76
20015;BME280;61787;42.022;23.078;2024-03-08T02:48:08;96795.16;;;7.94;63.72
20015;BME280;61787;42.022;23.078;2024-03-08T02:49:10;96808.34;;;7.99;63.77
20015;BME280;61787;42.022;23.078;2024-03-08T02:50:13;96812.22;;;8.06;63.54
20015;BME280;61787;42.022;23.078;2024-03-08T02:51:17;96805.28;;;8.08;63.31
20015;BME280;61787;42.022;23.078;2024-03-08T02:52:19;96811.84;;;8.11;63.43
20015;BME280;61787;42.022;23.078;2024-03-08T02:53:22;96816.50;;;8.10;63.12
20015;BME280;61787;42.022;23.078;2024-03-08T02:54:25;96811.84;;;8.11;62.91
20015;BME280;61787;42.022;23.078;2024-03-08T02:55:27;96811.84;;;8.11;62.87
20015;BME280;61787;42.022;23.078;2024-03-08T02:56:29;96808.75;;;8.09;63.07
20015;BME280;61787;42.022;23.078;2024-03-08T02:57:31;96806.78;;;7.95;63.35
20015;BME280;61787;42.022;23.078;2024-03-08T02:58:33;96808.72;;;7.91;63.62
20015;BME280;61787;42.022;23.078;2024-03-08T02:59:35;96809.47;;;7.84;63.71
20015;BME280;61787;42.022;23.078;2024-03-08T03:00:37;96810.66;;;7.83;63.49
20015;BME280;61787;42.022;23.078;2024-03-08T03:01:41;96802.91;;;7.89;63.51
20015;BME280;61787;42.022;23.078;2024-03-08T03:02:42;96799.81;;;7.94;63.25
20015;BME280;61787;42.022;23.078;2024-03-08T03:03:44;96808.72;;;7.94;63.28
20015;BME280;61787;42.022;23.078;2024-03-08T03:04:46;96813.03;;;7.99;63.31
20015;BME280;61787;42.022;23.078;2024-03-08T03:05:47;96811.06;;;8.03;63.26
20015;BME280;61787;42.022;23.078;2024-03-08T03:06:50;96806.03;;;8.09;62.98
20015;BME280;61787;42.022;23.078;2024-03-08T03:07:52;96817.28;;;8.14;62.92
20015;BME280;61787;42.022;23.078;2024-03-08T03:08:53;96813.03;;;8.17;62.81
20015;BME280;61787;42.022;23.078;2024-03-08T03:09:55;96811.47;;;8.19;62.50
20015;BME280;61787;42.022;23.078;2024-03-08T03:10:57;96813.03;;;8.20;62.53
20015;BME280;61787;42.022;23.078;2024-03-08T03:11:59;96819.25;;;8.25;62.38
20015;BME280;61787;42.022;23.078;2024-03-08T03:13:01;96821.19;;;8.24;62.45
20015;BME280;61787;42.022;23.078;2024-03-08T03:14:02;96817.69;;;8.20;62.49
20015;BME280;61787;42.022;23.078;2024-03-08T03:15:04;96813.81;;;8.21;62.21
20015;BME280;61787;42.022;23.078;2024-03-08T03:16:08;96824.28;;;8.15;62.31
20015;BME280;61787;42.022;23.078;2024-03-08T03:17:11;96826.22;;;8.15;62.45
20015;BME280;61787;42.022;23.078;2024-03-08T03:18:13;96819.25;;;8.17;62.36
20015;BME280;61787;42.022;23.078;2024-03-08T03:19:15;96827.78;;;8.19;62.14
20015;BME280;61787;42.022;23.078;2024-03-08T03:20:18;96827.78;;;8.19;62.24
20015;BME280;61787;42.022;23.078;2024-03-08T03:21:28;96833.22;;;8.23;62.08
20015;BME280;61787;42.022;23.078;2024-03-08T03:22:33;96828.97;;;8.26;61.88
20015;BME280;61787;42.022;23.078;2024-03-08T03:23:36;96827.00;;;8.30;61.88
20015;BME280;61787;42.022;23.078;2024-03-08T03:24:38;96826.63;;;8.35;62.06
20015;BME280;61787;42.022;23.078;2024-03-08T03:25:40;96836.31;;;8.36;61.94
20015;BME280;61787;42.022;23.078;2024-03-08T03:26:43;96839.41;;;8.38;61.80
20015;BME280;61787;42.022;23.078;2024-03-08T03:27:45;96829.34;;;8.38;61.96
20015;BME280;61787;42.022;23.078;2024-03-08T03:28:47;96837.13;;;8.40;61.89
20015;BME280;61787;42.022;23.078;2024-03-08T03:29:49;96836.34;;;8.43;62.07
20015;BME280;61787;42.022;23.078;2024-03-08T03:30:52;96836.34;;;8.47;62.03
20015;BME280;61787;42.022;23.078;2024-03-08T03:31:54;96834.44;;;8.47;62.06
20015;BME280;61787;42.022;23.078;2024-03-08T03:32:56;96837.53;;;8.49;62.02
20015;BME280;61787;42.022;23.078;2024-03-08T03:34:00;96836.34;;;8.50;62.07
20015;BME280;61787;42.022;23.078;2024-03-08T03:35:05;96837.16;;;8.51;61.98
20015;BME280;61787;42.022;23.078;2024-03-08T03:36:07;96842.59;;;8.54;62.08
20015;BME280;61787;42.022;23.078;2024-03-08T03:37:11;96837.88;;;8.40;62.10
20015;BME280;61787;42.022;23.078;2024-03-08T03:38:16;96842.53;;;8.40;62.17
20015;BME280;61787;42.022;23.078;2024-03-08T03:39:17;96842.97;;;8.42;62.36
20015;BME280;61787;42.022;23.078;2024-03-08T03:40:21;96840.25;;;8.42;62.42
20015;BME280;61787;42.022;23.078;2024-03-08T03:41:25;96842.56;;;8.47;61.93
20015;BME280;61787;42.022;23.078;2024-03-08T03:42:26;96842.97;;;8.49;62.03
20015;BME280;61787;42.022;23.078;2024-03-08T03:43:28;96844.88;;;8.52;61.85
20015;BME280;61787;42.022;23.078;2024-03-08T03:44:29;96849.16;;;8.53;61.81
20015;BME280;61787;42.022;23.078;2024-03-08T03:45:31;96850.31;;;8.56;61.70
20015;BME280;61787;42.022;23.078;2024-03-08T03:46:41;96846.06;;;8.58;61.73
20015;BME280;61787;42.022;23.078;2024-03-08T03:47:46;96844.88;;;8.59;61.44
20015;BME280;61787;42.022;23.078;2024-03-08T03:48:47;96844.50;;;8.57;61.58
20015;BME280;61787;42.022;23.078;2024-03-08T03:49:49;96844.88;;;8.59;61.71
20015;BME280;61787;42.022;23.078;2024-03-08T03:50:51;96852.66;;;8.61;61.40
20015;BME280;61787;42.022;23.078;2024-03-08T03:51:52;96849.53;;;8.63;61.40
20015;BME280;61787;42.022;23.078;2024-03-08T03:52:54;96853.44;;;8.62;61.21
20015;BME280;61787;42.022;23.078;2024-03-08T03:53:56;96853.44;;;8.58;61.29
20015;BME280;61787;42.022;23.078;2024-03-08T03:54:59;96847.22;;;8.57;61.25
20015;BME280;61787;42.022;23.078;2024-03-08T03:56:00;96851.13;;;8.56;61.32
20015;BME280;61787;42.022;23.078;2024-03-08T03:57:02;96856.94;;;8.58;61.29
20015;BME280;61787;42.022;23.078;2024-03-08T03:58:04;96852.25;;;8.59;61.35
20015;BME280;61787;42.022;23.078;2024-03-08T03:59:06;96853.81;;;8.60;61.23
20015;BME280;61787;42.022;23.078;2024-03-08T04:00:08;96855.75;;;8.63;61.25
20015;BME280;61787;42.022;23.078;2024-03-08T04:01:13;96852.25;;;8.63;61.13
20015;BME280;61787;42.022;23.078;2024-03-08T04:02:15;96855.75;;;8.63;61.16
20015;BME280;61787;42.022;23.078;2024-03-08T04:03:17;96849.53;;;8.66;60.85
20015;BME280;61787;42.022;23.078;2024-03-08T04:04:18;96855.75;;;8.67;60.75
20015;BME280;61787;42.022;23.078;2024-03-08T04:05:20;96857.69;;;8.66;60.76
20015;BME280;61787;42.022;23.078;2024-03-08T04:06:22;96860.81;;;8.65;60.88
20015;BME280;61787;42.022;23.078;2024-03-08T04:07:25;96859.25;;;8.67;60.91
20015;BME280;61787;42.022;23.078;2024-03-08T04:08:26;96861.97;;;8.67;60.73
20015;BME280;61787;42.022;23.078;2024-03-08T04:09:28;96859.25;;;8.67;60.91
20015;BME280;61787;42.022;23.078;2024-03-08T04:10:30;96860.03;;;8.68;60.92
20015;BME280;61787;42.022;23.078;2024-03-08T04:11:31;96856.16;;;8.69;61.05
20015;BME280;61787;42.022;23.078;2024-03-08T04:12:33;96860.41;;;8.70;60.94
20015;BME280;61787;42.022;23.078;2024-03-08T04:13:35;96856.53;;;8.64;60.65
20015;BME280;61787;42.022;23.078;2024-03-08T04:14:41;96858.09;;;8.57;60.81
20015;BME280;61787;42.022;23.078;2024-03-08T04:15:43;96864.31;;;8.54;60.55
20015;BME280;61787;42.022;23.078;2024-03-08T04:16:50;96855.75;;;8.49;60.79
20015;BME280;61787;42.022;23.078;2024-03-08T04:17:52;96855.75;;;8.45;60.83
20015;BME280;61787;42.022;23.078;2024-03-08T04:18:54;96862.34;;;8.44;60.81
20015;BME280;61787;42.022;23.078;2024-03-08T04:19:56;96859.25;;;8.46;60.60
20015;BME280;61787;42.022;23.078;2024-03-08T04:20:58;96856.16;;;8.47;60.67
20015;BME280;61787;42.022;23.078;2024-03-08T04:22:01;96866.63;;;8.49;60.74
20015;BME280;61787;42.022;23.078;2024-03-08T04:23:03;96866.22;;;8.50;60.48
20015;BME280;61787;42.022;23.078;2024-03-08T04:24:05;96861.19;;;8.52;60.58
20015;BME280;61787;42.022;23.078;2024-03-08T04:25:07;96861.97;;;8.53;60.85
20015;BME280;61787;42.022;23.078;2024-03-08T04:26:11;96861.19;;;8.52;60.67
20015;BME280;61787;42.022;23.078;2024-03-08T04:27:13;96867.03;;;8.54;60.81
20015;BME280;61787;42.022;23.078;2024-03-08T04:28:16;96874.38;;;8.57;60.69
20015;BME280;61787;42.022;23.078;2024-03-08T04:29:18;96876.34;;;8.57;61.00
20015;BME280;61787;42.022;23.078;2024-03-08T04:30:20;96874.38;;;8.57;60.86
20015;BME280;61787;42.022;23.078;2024-03-08T04:31:23;96867.81;;;8.58;61.29
20015;BME280;61787;42.022;23.078;2024-03-08T04:32:25;96869.34;;;8.59;61.09
20015;BME280;61787;42.022;23.078;2024-03-08T04:33:26;96875.19;;;8.62;61.14
20015;BME280;61787;42.022;23.078;2024-03-08T04:34:28;96872.06;;;8.59;61.08
20015;BME280;61787;42.022;23.078;2024-03-08T04:35:30;96874.00;;;8.55;61.13
20015;BME280;61787;42.022;23.078;2024-03-08T04:36:32;96875.19;;;8.51;61.09
20015;BME280;61787;42.022;23.078;2024-03-08T04:37:35;96877.47;;;8.52;61.06
20015;BME280;61787;42.022;23.078;2024-03-08T04:38:37;96875.19;;;8.54;61.05
20015;BME280;61787;42.022;23.078;2024-03-08T04:39:42;96882.53;;;8.57;60.93
20015;BME280;61787;42.022;23.078;2024-03-08T04:40:44;96880.63;;;8.62;60.70
20015;BME280;61787;42.022;23.078;2024-03-08T04:41:46;96882.91;;;8.63;60.71
20015;BME280;61787;42.022;23.078;2024-03-08T04:42:47;96882.16;;;8.63;60.50
20015;BME280;61787;42.022;23.078;2024-03-08T04:43:52;96884.88;;;8.63;60.78
20015;BME280;61787;42.022;23.078;2024-03-08T04:44:53;96886.81;;;8.62;60.78
20015;BME280;61787;42.022;23.078;2024-03-08T04:45:55;96889.16;;;8.60;61.05
20015;BME280;61787;42.022;23.078;2024-03-08T04:46:57;96893.03;;;8.59;61.14
20015;BME280;61787;42.022;23.078;2024-03-08T04:47:59;96892.25;;;8.58;61.16
20015;BME280;61787;42.022;23.078;2024-03-08T04:49:01;96894.59;;;8.56;61.33
20015;BME280;61787;42.022;23.078;2024-03-08T04:50:03;96886.81;;;8.51;61.07
20015;BME280;61787;42.022;23.078;2024-03-08T04:51:05;96893.00;;;8.48;61.65
20015;BME280;61787;42.022;23.078;2024-03-08T04:52:07;96896.06;;;8.39;61.79
20015;BME280;61787;42.022;23.078;2024-03-08T04:53:09;96888.31;;;8.31;62.21
20015;BME280;61787;42.022;23.078;2024-03-08T04:54:11;96893.72;;;8.27;62.49
20015;BME280;61787;42.022;23.078;2024-03-08T04:55:12;96894.16;;;8.33;63.06
20015;BME280;61787;42.022;23.078;2024-03-08T04:56:14;96898.03;;;8.39;63.20
20015;BME280;61787;42.022;23.078;2024-03-08T04:57:16;96899.63;;;8.44;62.75
20015;BME280;61787;42.022;23.078;2024-03-08T04:58:20;96901.53;;;8.43;62.61
20015;BME280;61787;42.022;23.078;2024-03-08T04:59:22;96894.56;;;8.42;62.54
20015;BME280;61787;42.022;23.078;2024-03-08T05:00:24;96894.94;;;8.40;62.26
20015;BME280;61787;42.022;23.078;2024-03-08T05:01:26;96893.75;;;8.41;62.46
20015;BME280;61787;42.022;23.078;2024-03-08T05:02:28;96898.81;;;8.43;62.35
20015;BME280;61787;42.022;23.078;2024-03-08T05:03:29;96898.81;;;8.43;62.08
20015;BME280;61787;42.022;23.078;2024-03-08T05:04:31;96900.78;;;8.46;61.66
20015;BME280;61787;42.022;23.078;2024-03-08T05:05:33;96900.34;;;8.37;61.74
20015;BME280;61787;42.022;23.078;2024-03-08T05:06:34;96907.28;;;8.23;62.22
20015;BME280;61787;42.022;23.078;2024-03-08T05:07:41;96910.41;;;8.11;62.62
20015;BME280;61787;42.022;23.078;2024-03-08T05:08:42;96906.13;;;8.14;62.89
20015;BME280;61787;42.022;23.078;2024-03-08T05:09:44;96903.78;;;8.12;62.81
20015;BME280;61787;42.022;23.078;2024-03-08T05:10:52;96905.72;;;8.12;62.97
20015;BME280;61787;42.022;23.078;2024-03-08T05:11:54;96908.84;;;8.14;62.89
20015;BME280;61787;42.022;23.078;2024-03-08T05:12:56;96908.47;;;8.15;62.76
20015;BME280;61787;42.022;23.078;2024-03-08T05:13:58;96912.72;;;8.16;62.63
20015;BME280;61787;42.022;23.078;2024-03-08T05:15:00;96911.94;;;8.16;62.46
20015;BME280;61787;42.022;23.078;2024-03-08T05:16:02;96911.16;;;8.15;62.87
20015;BME280;61787;42.022;23.078;2024-03-08T05:17:03;96914.66;;;8.19;62.72
20015;BME280;61787;42.022;23.078;2024-03-08T05:18:08;96917.38;;;8.23;62.51
20015;BME280;61787;42.022;23.078;2024-03-08T05:19:12;96910.03;;;8.27;62.29
20015;BME280;61787;42.022;23.078;2024-03-08T05:20:14;96909.63;;;8.29;62.34
20015;BME280;61787;42.022;23.078;2024-03-08T05:21:16;96916.63;;;8.30;62.56
20015;BME280;61787;42.022;23.078;2024-03-08T05:22:21;96922.44;;;8.28;62.60
20015;BME280;61787;42.022;23.078;2024-03-08T05:23:24;96921.69;;;8.28;62.53
20015;BME280;61787;42.022;23.078;2024-03-08T05:24:25;96933.31;;;8.28;62.46
20015;BME280;61787;42.022;23.078;2024-03-08T05:25:27;96926.31;;;8.31;62.36
20015;BME280;61787;42.022;23.078;2024-03-08T05:26:29;96930.59;;;8.32;62.30
20015;BME280;61787;42.022;23.078;2024-03-08T05:27:31;96933.31;;;8.32;62.43
20015;BME280;61787;42.022;23.078;2024-03-08T05:28:33;96932.16;;;8.33;62.45
20015;BME280;61787;42.022;23.078;2024-03-08T05:29:35;96941.09;;;8.33;62.34
20015;BME280;61787;42.022;23.078;2024-03-08T05:30:38;96938.75;;;8.35;62.07